Lerwick, United Kingdom
Current Conditions -  °F | °C
As of 9:20 AM on Thursday 27 Nov 2014 (Local Time) from EGPB Reporting Station
Scattered Clouds Scattered Clouds  
Wind Chill: 42°   Ceiling: Unl
Heat Index: 48°   Visibility: 6mi
Dew Point: 45°   Wind: 17mph
Humidity: 87%   Direction: 140°SE
Pressure: 29.77"   Gusts: NA
Location:  60.15°N, 1.15°W
Report Text: EGPB 270920Z 14015KT 9999 FEW012 SCT017 09/07 Q1008 NOSIG
Loading
Personal Weather Stations






























Interactive Weather Map New forecast layout! Learn more

10-Day Weather Forecast

Advertisements
Track Severe Weather on mobile